Pisek, ND (58273)

7:46 AM CST on December 03, 2016 (GMT -0600)
Forest River Farms | | Change Station

Elev 876 ft 48.17 °N, 97.47 °W | Updated 24 seconds ago

Overcast
Overcast
26.2 °F
Feels Like 19 °F
N
7.0
Wind Variable Wind from South

Today
High -- | Low -- °F
--% Chance of Precip.
Yesterday
High -- | Low -- °F
Precip. -- in
Pressure 30.18 in
Visibility 10.0 miles
Clouds Overcast 1400 ft
Windchill 19 °F
Dew Point 23 °F
Humidity 88%
Rainfall 0.00 in
Snow Depth Not available.
8:03 AM 4:37 PM
Waxing Crescent, 15% visible
METAR KGAF 031335Z AUTO 17014KT 10SM OVC014 M03/M05 A3018 RMK AO2
Pressure 30.18 in
Visibility 10.0 miles
Clouds Overcast 1400 ft
Windchill 19 °F
Dew Point 23 °F
Humidity 88%
Rainfall 0.00 in
Snow Depth Not available.
8:03 AM 4:37 PM
Waxing Crescent, 15% visible
METAR KGAF 031335Z AUTO 17014KT 10SM OVC014 M03/M05 A3018 RMK AO2

10-Day Weather Forecast

Almanac

Astronomy

Dec. 03, 2016 Rise Set
Actual Time
Civil Twilight
Nautical Twilight
Astronomical Twilight
Moon
Length of Visible Light
Length of Day
Tomorrow will be .
, % of the Moon is Illuminated

Today's Extremes

State Highs State Lows

Community

WunderPhotos

Upload Photos

1,955,446 photos uploaded!

WunderBlog® & News

Nearby

Air Quality

  Air Quality AQ Index Pollutant
Not available.

Snow Depth

Station Depth Elevation

Earthquake Activity

City Distance Mag. Time & Date
Minimum magnitude displayed is 2.5.

Coastal Water Temperatures

Place Temperature

Stations

Nearby Weather Stations

Station Location Temp. Windchill Dew Point Humidity Wind Precip. Elev Updated Type
                   

Watches & Warnings

There are currently no watches in effect.